sensor_id;sensor_type;location;lat;lon;timestamp;P1;durP1;ratioP1;P2;durP2;ratioP2
13941;SDS011;7043;51.630;7.254;2024-03-23T00:52:36;20.47;;;7.00;;
13941;SDS011;7043;51.630;7.254;2024-03-23T00:55:02;17.87;;;6.83;;
13941;SDS011;7043;51.630;7.254;2024-03-23T00:57:28;13.73;;;5.97;;
13941;SDS011;7043;51.630;7.254;2024-03-23T00:59:54;10.70;;;5.37;;
13941;SDS011;7043;51.630;7.254;2024-03-23T01:02:20;11.00;;;5.37;;
13941;SDS011;7043;51.630;7.254;2024-03-23T01:04:47;13.73;;;5.13;;
13941;SDS011;7043;51.630;7.254;2024-03-23T01:07:13;9.63;;;4.60;;
13941;SDS011;7043;51.630;7.254;2024-03-23T01:09:39;13.23;;;4.57;;
13941;SDS011;7043;51.630;7.254;2024-03-23T01:12:05;10.40;;;4.40;;
13941;SDS011;7043;51.630;7.254;2024-03-23T01:14:31;9.67;;;4.57;;
13941;SDS011;7043;51.630;7.254;2024-03-23T01:16:57;13.50;;;4.80;;
13941;SDS011;7043;51.630;7.254;2024-03-23T01:19:23;11.57;;;5.57;;
13941;SDS011;7043;51.630;7.254;2024-03-23T01:21:49;15.60;;;5.33;;
13941;SDS011;7043;51.630;7.254;2024-03-23T01:24:15;12.03;;;5.27;;
13941;SDS011;7043;51.630;7.254;2024-03-23T01:26:41;15.97;;;6.07;;
13941;SDS011;7043;51.630;7.254;2024-03-23T01:29:07;16.57;;;5.67;;
13941;SDS011;7043;51.630;7.254;2024-03-23T01:31:33;11.83;;;5.10;;
13941;SDS011;7043;51.630;7.254;2024-03-23T01:33:59;11.40;;;5.13;;
13941;SDS011;7043;51.630;7.254;2024-03-23T01:36:25;15.70;;;5.63;;
13941;SDS011;7043;51.630;7.254;2024-03-23T01:38:51;13.50;;;4.90;;
13941;SDS011;7043;51.630;7.254;2024-03-23T01:41:17;11.47;;;4.70;;
13941;SDS011;7043;51.630;7.254;2024-03-23T01:43:44;12.50;;;4.33;;
13941;SDS011;7043;51.630;7.254;2024-03-23T01:46:10;9.90;;;4.30;;
13941;SDS011;7043;51.630;7.254;2024-03-23T01:48:37;11.40;;;4.10;;
13941;SDS011;7043;51.630;7.254;2024-03-23T01:51:03;9.80;;;3.77;;
13941;SDS011;7043;51.630;7.254;2024-03-23T01:53:29;10.90;;;3.97;;
13941;SDS011;7043;51.630;7.254;2024-03-23T01:55:55;13.97;;;4.50;;
13941;SDS011;7043;51.630;7.254;2024-03-23T01:58:22;11.43;;;4.00;;
13941;SDS011;7043;51.630;7.254;2024-03-23T02:00:48;11.53;;;4.20;;
13941;SDS011;7043;51.630;7.254;2024-03-23T02:03:24;10.03;;;3.63;;
13941;SDS011;7043;51.630;7.254;2024-03-23T02:05:50;10.20;;;3.23;;
13941;SDS011;7043;51.630;7.254;2024-03-23T02:08:17;8.70;;;3.00;;
13941;SDS011;7043;51.630;7.254;2024-03-23T02:10:43;7.43;;;2.50;;
13941;SDS011;7043;51.630;7.254;2024-03-23T02:13:09;6.80;;;2.50;;
13941;SDS011;7043;51.630;7.254;2024-03-23T02:15:35;9.53;;;2.80;;
13941;SDS011;7043;51.630;7.254;2024-03-23T02:18:01;6.13;;;2.80;;
13941;SDS011;7043;51.630;7.254;2024-03-23T02:20:27;7.03;;;3.00;;
13941;SDS011;7043;51.630;7.254;2024-03-23T02:22:53;8.30;;;3.60;;
13941;SDS011;7043;51.630;7.254;2024-03-23T02:25:19;7.83;;;3.30;;
13941;SDS011;7043;51.630;7.254;2024-03-23T02:27:45;11.07;;;3.70;;
13941;SDS011;7043;51.630;7.254;2024-03-23T02:30:11;8.33;;;3.20;;
13941;SDS011;7043;51.630;7.254;2024-03-23T02:32:37;10.43;;;3.73;;
13941;SDS011;7043;51.630;7.254;2024-03-23T02:35:03;8.07;;;3.77;;
13941;SDS011;7043;51.630;7.254;2024-03-23T02:37:29;9.37;;;3.80;;
13941;SDS011;7043;51.630;7.254;2024-03-23T02:39:56;9.23;;;3.50;;
13941;SDS011;7043;51.630;7.254;2024-03-23T02:42:22;9.00;;;3.90;;
13941;SDS011;7043;51.630;7.254;2024-03-23T02:44:48;11.93;;;3.97;;
13941;SDS011;7043;51.630;7.254;2024-03-23T02:47:14;10.87;;;4.13;;
13941;SDS011;7043;51.630;7.254;2024-03-23T02:49:40;12.33;;;4.47;;
13941;SDS011;7043;51.630;7.254;2024-03-23T02:52:06;12.97;;;4.03;;
13941;SDS011;7043;51.630;7.254;2024-03-23T02:54:31;8.90;;;3.87;;
13941;SDS011;7043;51.630;7.254;2024-03-23T02:56:57;11.60;;;3.67;;
13941;SDS011;7043;51.630;7.254;2024-03-23T02:59:23;8.83;;;2.90;;
13941;SDS011;7043;51.630;7.254;2024-03-23T03:01:49;12.00;;;3.40;;
13941;SDS011;7043;51.630;7.254;2024-03-23T03:04:15;8.50;;;3.17;;
13941;SDS011;7043;51.630;7.254;2024-03-23T03:06:41;9.03;;;3.27;;
13941;SDS011;7043;51.630;7.254;2024-03-23T03:09:07;6.33;;;2.80;;
13941;SDS011;7043;51.630;7.254;2024-03-23T03:11:33;9.23;;;3.20;;
13941;SDS011;7043;51.630;7.254;2024-03-23T03:14:00;8.07;;;2.80;;
13941;SDS011;7043;51.630;7.254;2024-03-23T03:16:26;9.63;;;3.93;;
13941;SDS011;7043;51.630;7.254;2024-03-23T03:18:52;8.47;;;3.30;;
13941;SDS011;7043;51.630;7.254;2024-03-23T03:21:18;9.80;;;3.70;;
13941;SDS011;7043;51.630;7.254;2024-03-23T03:23:44;11.00;;;4.27;;
13941;SDS011;7043;51.630;7.254;2024-03-23T03:26:10;8.40;;;3.53;;
13941;SDS011;7043;51.630;7.254;2024-03-23T03:28:36;10.37;;;3.93;;
13941;SDS011;7043;51.630;7.254;2024-03-23T03:31:02;10.80;;;4.43;;
13941;SDS011;7043;51.630;7.254;2024-03-23T03:33:28;9.70;;;4.00;;
13941;SDS011;7043;51.630;7.254;2024-03-23T03:35:54;10.13;;;4.20;;
13941;SDS011;7043;51.630;7.254;2024-03-23T03:38:21;9.23;;;3.70;;
13941;SDS011;7043;51.630;7.254;2024-03-23T03:40:47;11.63;;;4.10;;
13941;SDS011;7043;51.630;7.254;2024-03-23T03:43:13;8.33;;;3.87;;
13941;SDS011;7043;51.630;7.254;2024-03-23T03:45:39;10.23;;;4.00;;
13941;SDS011;7043;51.630;7.254;2024-03-23T03:48:05;11.43;;;4.10;;
13941;SDS011;7043;51.630;7.254;2024-03-23T03:50:31;10.27;;;3.97;;
13941;SDS011;7043;51.630;7.254;2024-03-23T03:52:57;11.73;;;4.40;;
13941;SDS011;7043;51.630;7.254;2024-03-23T03:55:23;8.47;;;3.77;;
13941;SDS011;7043;51.630;7.254;2024-03-23T03:57:49;12.43;;;3.83;;
13941;SDS011;7043;51.630;7.254;2024-03-23T04:00:15;10.87;;;3.90;;
13941;SDS011;7043;51.630;7.254;2024-03-23T04:02:41;12.57;;;3.70;;
13941;SDS011;7043;51.630;7.254;2024-03-23T04:05:07;11.03;;;3.97;;
13941;SDS011;7043;51.630;7.254;2024-03-23T04:07:33;7.63;;;2.83;;
13941;SDS011;7043;51.630;7.254;2024-03-23T04:09:59;9.53;;;3.40;;
13941;SDS011;7043;51.630;7.254;2024-03-23T04:12:25;9.93;;;3.90;;
13941;SDS011;7043;51.630;7.254;2024-03-23T04:14:51;8.80;;;3.30;;
13941;SDS011;7043;51.630;7.254;2024-03-23T04:17:17;10.50;;;3.50;;
13941;SDS011;7043;51.630;7.254;2024-03-23T04:19:44;9.73;;;3.50;;
13941;SDS011;7043;51.630;7.254;2024-03-23T04:22:10;8.90;;;3.20;;
13941;SDS011;7043;51.630;7.254;2024-03-23T04:24:36;8.33;;;3.43;;
13941;SDS011;7043;51.630;7.254;2024-03-23T04:27:02;8.93;;;3.37;;
13941;SDS011;7043;51.630;7.254;2024-03-23T04:29:28;10.13;;;3.50;;
13941;SDS011;7043;51.630;7.254;2024-03-23T04:31:54;10.77;;;3.03;;
13941;SDS011;7043;51.630;7.254;2024-03-23T04:34:20;8.13;;;3.20;;
13941;SDS011;7043;51.630;7.254;2024-03-23T04:36:47;7.70;;;3.17;;
13941;SDS011;7043;51.630;7.254;2024-03-23T04:39:13;8.77;;;3.63;;
13941;SDS011;7043;51.630;7.254;2024-03-23T04:41:39;9.80;;;3.80;;
13941;SDS011;7043;51.630;7.254;2024-03-23T04:44:05;10.60;;;4.00;;
13941;SDS011;7043;51.630;7.254;2024-03-23T04:46:31;7.80;;;3.83;;
13941;SDS011;7043;51.630;7.254;2024-03-23T04:48:57;11.97;;;4.20;;
13941;SDS011;7043;51.630;7.254;2024-03-23T04:51:23;10.07;;;4.17;;
13941;SDS011;7043;51.630;7.254;2024-03-23T04:53:50;9.43;;;3.80;;
13941;SDS011;7043;51.630;7.254;2024-03-23T04:56:16;11.00;;;3.40;;
13941;SDS011;7043;51.630;7.254;2024-03-23T04:58:42;9.80;;;4.30;;
13941;SDS011;7043;51.630;7.254;2024-03-23T05:01:08;11.17;;;4.37;;
13941;SDS011;7043;51.630;7.254;2024-03-23T05:03:35;12.03;;;4.27;;
13941;SDS011;7043;51.630;7.254;2024-03-23T05:06:00;9.87;;;4.00;;
13941;SDS011;7043;51.630;7.254;2024-03-23T05:08:26;11.63;;;4.47;;
13941;SDS011;7043;51.630;7.254;2024-03-23T05:10:52;10.37;;;4.90;;
13941;SDS011;7043;51.630;7.254;2024-03-23T05:13:18;8.40;;;4.77;;
13941;SDS011;7043;51.630;7.254;2024-03-23T05:15:50;9.70;;;5.40;;
13941;SDS011;7043;51.630;7.254;2024-03-23T05:18:16;10.00;;;5.23;;
13941;SDS011;7043;51.630;7.254;2024-03-23T05:20:42;13.37;;;5.80;;
13941;SDS011;7043;51.630;7.254;2024-03-23T05:23:09;16.47;;;6.27;;
13941;SDS011;7043;51.630;7.254;2024-03-23T05:25:35;10.67;;;5.97;;
13941;SDS011;7043;51.630;7.254;2024-03-23T05:28:01;14.07;;;6.50;;
13941;SDS011;7043;51.630;7.254;2024-03-23T05:30:27;13.67;;;6.87;;
13941;SDS011;7043;51.630;7.254;2024-03-23T05:32:53;17.87;;;7.43;;
13941;SDS011;7043;51.630;7.254;2024-03-23T05:35:20;14.77;;;7.10;;
13941;SDS011;7043;51.630;7.254;2024-03-23T05:37:46;17.87;;;7.87;;
13941;SDS011;7043;51.630;7.254;2024-03-23T05:40:12;17.27;;;8.20;;
13941;SDS011;7043;51.630;7.254;2024-03-23T05:42:40;17.63;;;8.10;;
13941;SDS011;7043;51.630;7.254;2024-03-23T05:45:06;15.87;;;8.23;;
13941;SDS011;7043;51.630;7.254;2024-03-23T05:47:33;16.87;;;8.60;;
13941;SDS011;7043;51.630;7.254;2024-03-23T05:49:59;15.40;;;8.30;;
13941;SDS011;7043;51.630;7.254;2024-03-23T05:52:26;17.07;;;8.50;;
13941;SDS011;7043;51.630;7.254;2024-03-23T05:54:52;13.27;;;7.90;;
13941;SDS011;7043;51.630;7.254;2024-03-23T05:57:18;14.30;;;8.80;;
13941;SDS011;7043;51.630;7.254;2024-03-23T05:59:44;16.63;;;8.30;;
13941;SDS011;7043;51.630;7.254;2024-03-23T06:02:10;15.33;;;8.23;;
13941;SDS011;7043;51.630;7.254;2024-03-23T06:04:36;18.17;;;9.07;;
13941;SDS011;7043;51.630;7.254;2024-03-23T06:07:03;18.50;;;9.10;;
13941;SDS011;7043;51.630;7.254;2024-03-23T06:09:31;17.50;;;9.40;;
13941;SDS011;7043;51.630;7.254;2024-03-23T06:11:57;16.73;;;9.53;;
13941;SDS011;7043;51.630;7.254;2024-03-23T06:14:23;16.20;;;10.07;;
13941;SDS011;7043;51.630;7.254;2024-03-23T06:16:49;21.73;;;10.67;;
13941;SDS011;7043;51.630;7.254;2024-03-23T06:19:15;17.73;;;10.93;;
13941;SDS011;7043;51.630;7.254;2024-03-23T06:21:44;19.27;;;10.77;;
13941;SDS011;7043;51.630;7.254;2024-03-23T06:24:11;20.57;;;11.33;;
13941;SDS011;7043;51.630;7.254;2024-03-23T06:26:37;26.43;;;12.13;;
13941;SDS011;7043;51.630;7.254;2024-03-23T06:29:04;20.83;;;12.03;;
13941;SDS011;7043;51.630;7.254;2024-03-23T06:31:30;20.23;;;12.20;;
13941;SDS011;7043;51.630;7.254;2024-03-23T06:33:56;22.10;;;13.17;;
13941;SDS011;7043;51.630;7.254;2024-03-23T06:36:22;23.17;;;13.33;;
13941;SDS011;7043;51.630;7.254;2024-03-23T06:38:48;24.73;;;13.43;;
13941;SDS011;7043;51.630;7.254;2024-03-23T06:41:14;21.43;;;13.40;;
13941;SDS011;7043;51.630;7.254;2024-03-23T06:43:40;21.20;;;12.13;;
13941;SDS011;7043;51.630;7.254;2024-03-23T06:46:06;17.00;;;13.23;;
13941;SDS011;7043;51.630;7.254;2024-03-23T06:48:32;20.83;;;12.13;;
13941;SDS011;7043;51.630;7.254;2024-03-23T06:50:58;21.77;;;13.30;;
13941;SDS011;7043;51.630;7.254;2024-03-23T06:53:24;22.60;;;13.87;;
13941;SDS011;7043;51.630;7.254;2024-03-23T06:55:51;22.10;;;14.43;;
13941;SDS011;7043;51.630;7.254;2024-03-23T06:58:18;22.37;;;13.80;;
13941;SDS011;7043;51.630;7.254;2024-03-23T07:00:45;20.20;;;13.17;;
13941;SDS011;7043;51.630;7.254;2024-03-23T07:03:11;21.70;;;12.17;;
13941;SDS011;7043;51.630;7.254;2024-03-23T07:05:37;18.73;;;12.30;;
13941;SDS011;7043;51.630;7.254;2024-03-23T07:08:03;22.57;;;11.90;;
13941;SDS011;7043;51.630;7.254;2024-03-23T07:10:29;18.27;;;10.37;;
13941;SDS011;7043;51.630;7.254;2024-03-23T07:12:55;17.63;;;10.50;;
13941;SDS011;7043;51.630;7.254;2024-03-23T07:15:21;15.97;;;9.33;;
13941;SDS011;7043;51.630;7.254;2024-03-23T07:17:47;14.07;;;9.00;;
13941;SDS011;7043;51.630;7.254;2024-03-23T07:20:13;14.23;;;8.33;;
13941;SDS011;7043;51.630;7.254;2024-03-23T07:22:40;15.60;;;8.07;;
13941;SDS011;7043;51.630;7.254;2024-03-23T07:25:06;13.67;;;8.00;;
13941;SDS011;7043;51.630;7.254;2024-03-23T07:27:32;12.50;;;7.00;;
13941;SDS011;7043;51.630;7.254;2024-03-23T07:29:58;14.23;;;6.93;;
13941;SDS011;7043;51.630;7.254;2024-03-23T07:32:26;13.73;;;7.07;;
13941;SDS011;7043;51.630;7.254;2024-03-23T07:34:52;12.50;;;6.33;;
13941;SDS011;7043;51.630;7.254;2024-03-23T07:37:18;12.50;;;6.50;;
13941;SDS011;7043;51.630;7.254;2024-03-23T07:39:44;15.00;;;6.33;;
13941;SDS011;7043;51.630;7.254;2024-03-23T07:42:10;12.50;;;5.57;;
13941;SDS011;7043;51.630;7.254;2024-03-23T07:44:36;13.73;;;5.87;;
13941;SDS011;7043;51.630;7.254;2024-03-23T07:47:02;11.53;;;5.33;;
13941;SDS011;7043;51.630;7.254;2024-03-23T07:49:29;12.50;;;5.40;;
13941;SDS011;7043;51.630;7.254;2024-03-23T07:51:55;14.23;;;5.73;;
13941;SDS011;7043;51.630;7.254;2024-03-23T07:54:21;12.80;;;5.20;;
13941;SDS011;7043;51.630;7.254;2024-03-23T07:56:47;9.93;;;4.00;;
13941;SDS011;7043;51.630;7.254;2024-03-23T07:59:13;13.10;;;4.00;;
13941;SDS011;7043;51.630;7.254;2024-03-23T08:01:39;12.63;;;4.40;;
13941;SDS011;7043;51.630;7.254;2024-03-23T08:04:05;9.40;;;3.83;;
13941;SDS011;7043;51.630;7.254;2024-03-23T08:06:31;11.17;;;4.20;;
13941;SDS011;7043;51.630;7.254;2024-03-23T08:08:59;8.47;;;3.33;;
13941;SDS011;7043;51.630;7.254;2024-03-23T08:11:26;12.63;;;3.87;;
13941;SDS011;7043;51.630;7.254;2024-03-23T08:13:52;10.10;;;4.27;;
13941;SDS011;7043;51.630;7.254;2024-03-23T08:16:21;9.87;;;4.13;;
13941;SDS011;7043;51.630;7.254;2024-03-23T08:18:47;9.73;;;3.80;;
13941;SDS011;7043;51.630;7.254;2024-03-23T08:21:13;8.33;;;3.80;;
13941;SDS011;7043;51.630;7.254;2024-03-23T08:23:40;15.67;;;5.47;;
13941;SDS011;7043;51.630;7.254;2024-03-23T08:26:09;12.23;;;5.00;;
13941;SDS011;7043;51.630;7.254;2024-03-23T08:28:38;7.83;;;4.40;;
13941;SDS011;7043;51.630;7.254;2024-03-23T08:31:08;9.93;;;5.43;;
13941;SDS011;7043;51.630;7.254;2024-03-23T08:33:35;12.77;;;6.03;;
13941;SDS011;7043;51.630;7.254;2024-03-23T08:36:07;12.27;;;5.33;;
13941;SDS011;7043;51.630;7.254;2024-03-23T08:38:34;14.60;;;5.80;;
13941;SDS011;7043;51.630;7.254;2024-03-23T08:41:01;11.57;;;4.63;;
13941;SDS011;7043;51.630;7.254;2024-03-23T08:43:31;14.27;;;5.60;;
13941;SDS011;7043;51.630;7.254;2024-03-23T08:46:06;12.20;;;6.30;;
13941;SDS011;7043;51.630;7.254;2024-03-23T08:48:36;13.73;;;5.90;;
13941;SDS011;7043;51.630;7.254;2024-03-23T08:51:05;12.40;;;5.73;;
13941;SDS011;7043;51.630;7.254;2024-03-23T08:53:31;10.50;;;6.10;;
13941;SDS011;7043;51.630;7.254;2024-03-23T08:55:58;13.67;;;6.33;;
13941;SDS011;7043;51.630;7.254;2024-03-23T08:58:25;13.23;;;5.60;;
13941;SDS011;7043;51.630;7.254;2024-03-23T09:00:51;9.97;;;4.97;;
13941;SDS011;7043;51.630;7.254;2024-03-23T09:03:21;12.47;;;4.97;;
13941;SDS011;7043;51.630;7.254;2024-03-23T09:05:47;13.87;;;5.53;;
13941;SDS011;7043;51.630;7.254;2024-03-23T09:08:13;12.87;;;5.37;;
13941;SDS011;7043;51.630;7.254;2024-03-23T09:10:40;10.53;;;4.43;;
13941;SDS011;7043;51.630;7.254;2024-03-23T09:13:06;10.20;;;3.77;;
13941;SDS011;7043;51.630;7.254;2024-03-23T09:15:36;11.67;;;4.93;;
13941;SDS011;7043;51.630;7.254;2024-03-23T09:18:02;10.30;;;3.93;;
13941;SDS011;7043;51.630;7.254;2024-03-23T09:20:29;10.10;;;4.00;;
13941;SDS011;7043;51.630;7.254;2024-03-23T09:22:55;9.37;;;4.63;;
13941;SDS011;7043;51.630;7.254;2024-03-23T09:25:21;10.30;;;4.60;;
13941;SDS011;7043;51.630;7.254;2024-03-23T09:27:47;9.20;;;3.57;;
13941;SDS011;7043;51.630;7.254;2024-03-23T09:30:13;6.40;;;3.37;;
13941;SDS011;7043;51.630;7.254;2024-03-23T09:32:41;8.23;;;3.53;;
13941;SDS011;7043;51.630;7.254;2024-03-23T09:35:07;9.33;;;3.43;;
13941;SDS011;7043;51.630;7.254;2024-03-23T09:37:33;7.07;;;2.87;;
13941;SDS011;7043;51.630;7.254;2024-03-23T09:39:59;10.60;;;3.80;;
13941;SDS011;7043;51.630;7.254;2024-03-23T09:42:25;7.30;;;3.70;;
13941;SDS011;7043;51.630;7.254;2024-03-23T09:44:51;9.33;;;3.93;;
13941;SDS011;7043;51.630;7.254;2024-03-23T09:47:17;6.03;;;3.00;;
13941;SDS011;7043;51.630;7.254;2024-03-23T09:49:44;9.07;;;3.43;;
13941;SDS011;7043;51.630;7.254;2024-03-23T09:52:10;9.20;;;3.60;;
13941;SDS011;7043;51.630;7.254;2024-03-23T09:54:36;6.37;;;2.60;;
13941;SDS011;7043;51.630;7.254;2024-03-23T09:57:02;4.47;;;2.30;;
13941;SDS011;7043;51.630;7.254;2024-03-23T09:59:29;7.83;;;2.90;;
13941;SDS011;7043;51.630;7.254;2024-03-23T10:01:55;5.60;;;2.73;;
13941;SDS011;7043;51.630;7.254;2024-03-23T10:04:43;6.33;;;2.70;;
13941;SDS011;7043;51.630;7.254;2024-03-23T10:07:12;6.77;;;2.60;;
13941;SDS011;7043;51.630;7.254;2024-03-23T10:09:39;5.23;;;2.20;;
13941;SDS011;7043;51.630;7.254;2024-03-23T10:12:12;5.73;;;2.10;;
13941;SDS011;7043;51.630;7.254;2024-03-23T10:14:41;4.53;;;1.83;;
13941;SDS011;7043;51.630;7.254;2024-03-23T10:19:43;6.47;;;2.30;;
13941;SDS011;7043;51.630;7.254;2024-03-23T10:22:09;6.97;;;3.00;;
13941;SDS011;7043;51.630;7.254;2024-03-23T10:24:36;7.17;;;2.80;;
13941;SDS011;7043;51.630;7.254;2024-03-23T10:27:02;6.63;;;2.80;;
13941;SDS011;7043;51.630;7.254;2024-03-23T10:29:28;7.23;;;2.50;;
13941;SDS011;7043;51.630;7.254;2024-03-23T10:31:54;6.70;;;2.67;;
13941;SDS011;7043;51.630;7.254;2024-03-23T10:34:27;8.10;;;2.67;;
13941;SDS011;7043;51.630;7.254;2024-03-23T10:36:53;5.37;;;2.87;;
13941;SDS011;7043;51.630;7.254;2024-03-23T10:39:21;4.90;;;1.90;;
13941;SDS011;7043;51.630;7.254;2024-03-23T10:41:49;6.37;;;2.37;;
13941;SDS011;7043;51.630;7.254;2024-03-23T10:44:19;5.30;;;2.23;;
13941;SDS011;7043;51.630;7.254;2024-03-23T10:46:45;5.57;;;2.20;;
13941;SDS011;7043;51.630;7.254;2024-03-23T10:49:11;4.93;;;1.87;;
13941;SDS011;7043;51.630;7.254;2024-03-23T10:51:37;6.07;;;2.13;;
13941;SDS011;7043;51.630;7.254;2024-03-23T10:54:04;3.40;;;1.30;;
13941;SDS011;7043;51.630;7.254;2024-03-23T10:56:31;3.57;;;1.80;;
13941;SDS011;7043;51.630;7.254;2024-03-23T10:58:59;6.50;;;2.80;;
13941;SDS011;7043;51.630;7.254;2024-03-23T11:01:27;5.93;;;2.23;;
13941;SDS011;7043;51.630;7.254;2024-03-23T11:03:53;6.20;;;1.80;;
13941;SDS011;7043;51.630;7.254;2024-03-23T11:09:01;4.27;;;2.10;;
13941;SDS011;7043;51.630;7.254;2024-03-23T11:11:30;3.07;;;1.37;;
13941;SDS011;7043;51.630;7.254;2024-03-23T11:13:58;5.77;;;1.87;;
13941;SDS011;7043;51.630;7.254;2024-03-23T11:16:25;6.47;;;1.63;;
13941;SDS011;7043;51.630;7.254;2024-03-23T11:21:53;5.93;;;1.63;;
13941;SDS011;7043;51.630;7.254;2024-03-23T11:24:20;5.30;;;1.80;;
13941;SDS011;7043;51.630;7.254;2024-03-23T11:26:47;5.63;;;1.53;;
13941;SDS011;7043;51.630;7.254;2024-03-23T11:29:13;4.13;;;1.80;;
13941;SDS011;7043;51.630;7.254;2024-03-23T11:31:52;4.13;;;1.10;;
13941;SDS011;7043;51.630;7.254;2024-03-23T11:34:19;3.67;;;1.30;;
13941;SDS011;7043;51.630;7.254;2024-03-23T11:36:46;3.33;;;1.33;;
13941;SDS011;7043;51.630;7.254;2024-03-23T11:39:15;2.60;;;1.30;;
13941;SDS011;7043;51.630;7.254;2024-03-23T11:41:51;4.03;;;1.67;;
13941;SDS011;7043;51.630;7.254;2024-03-23T11:44:21;3.70;;;1.93;;
13941;SDS011;7043;51.630;7.254;2024-03-23T11:46:48;3.57;;;1.53;;
13941;SDS011;7043;51.630;7.254;2024-03-23T11:51:47;4.03;;;1.60;;
13941;SDS011;7043;51.630;7.254;2024-03-23T11:54:13;2.77;;;1.47;;
13941;SDS011;7043;51.630;7.254;2024-03-23T11:56:39;3.27;;;1.97;;
13941;SDS011;7043;51.630;7.254;2024-03-23T11:59:08;2.97;;;1.30;;
13941;SDS011;7043;51.630;7.254;2024-03-23T12:01:34;3.90;;;1.87;;
13941;SDS011;7043;51.630;7.254;2024-03-23T12:04:00;3.97;;;1.77;;
13941;SDS011;7043;51.630;7.254;2024-03-23T12:06:27;5.00;;;1.97;;
13941;SDS011;7043;51.630;7.254;2024-03-23T12:08:53;6.43;;;1.80;;
13941;SDS011;7043;51.630;7.254;2024-03-23T12:11:19;6.63;;;2.00;;
13941;SDS011;7043;51.630;7.254;2024-03-23T12:13:47;4.17;;;1.60;;
13941;SDS011;7043;51.630;7.254;2024-03-23T12:16:24;4.73;;;1.80;;
13941;SDS011;7043;51.630;7.254;2024-03-23T12:18:52;2.43;;;1.60;;
13941;SDS011;7043;51.630;7.254;2024-03-23T12:21:19;4.97;;;2.00;;
13941;SDS011;7043;51.630;7.254;2024-03-23T12:23:48;3.43;;;1.83;;
13941;SDS011;7043;51.630;7.254;2024-03-23T12:26:15;3.77;;;1.93;;
13941;SDS011;7043;51.630;7.254;2024-03-23T12:28:42;4.40;;;2.33;;
13941;SDS011;7043;51.630;7.254;2024-03-23T12:31:08;9.37;;;2.17;;
13941;SDS011;7043;51.630;7.254;2024-03-23T12:33:36;7.93;;;2.20;;
13941;SDS011;7043;51.630;7.254;2024-03-23T12:36:02;5.20;;;2.00;;
13941;SDS011;7043;51.630;7.254;2024-03-23T12:38:29;4.63;;;2.20;;
13941;SDS011;7043;51.630;7.254;2024-03-23T12:40:55;4.07;;;1.87;;
13941;SDS011;7043;51.630;7.254;2024-03-23T12:43:21;2.60;;;1.87;;
13941;SDS011;7043;51.630;7.254;2024-03-23T12:45:47;5.47;;;1.73;;
13941;SDS011;7043;51.630;7.254;2024-03-23T12:48:14;3.93;;;2.23;;
13941;SDS011;7043;51.630;7.254;2024-03-23T12:50:40;3.67;;;1.80;;
13941;SDS011;7043;51.630;7.254;2024-03-23T12:53:06;6.33;;;2.27;;
13941;SDS011;7043;51.630;7.254;2024-03-23T12:55:32;3.40;;;1.73;;
13941;SDS011;7043;51.630;7.254;2024-03-23T12:58:00;4.77;;;1.70;;
13941;SDS011;7043;51.630;7.254;2024-03-23T13:00:26;5.77;;;1.80;;
13941;SDS011;7043;51.630;7.254;2024-03-23T13:02:52;7.77;;;2.20;;
13941;SDS011;7043;51.630;7.254;2024-03-23T13:05:18;4.27;;;1.67;;
13941;SDS011;7043;51.630;7.254;2024-03-23T13:07:44;5.70;;;2.23;;
13941;SDS011;7043;51.630;7.254;2024-03-23T13:10:10;5.67;;;1.50;;
13941;SDS011;7043;51.630;7.254;2024-03-23T13:12:36;5.57;;;2.23;;
13941;SDS011;7043;51.630;7.254;2024-03-23T13:15:02;4.77;;;1.90;;
13941;SDS011;7043;51.630;7.254;2024-03-23T13:17:28;2.07;;;1.30;;
13941;SDS011;7043;51.630;7.254;2024-03-23T13:19:54;4.37;;;1.90;;
13941;SDS011;7043;51.630;7.254;2024-03-23T13:22:23;3.63;;;1.70;;
13941;SDS011;7043;51.630;7.254;2024-03-23T13:24:49;3.50;;;1.30;;
13941;SDS011;7043;51.630;7.254;2024-03-23T13:27:15;2.50;;;1.27;;
13941;SDS011;7043;51.630;7.254;2024-03-23T13:29:44;2.87;;;1.60;;
13941;SDS011;7043;51.630;7.254;2024-03-23T13:32:11;2.33;;;1.40;;
13941;SDS011;7043;51.630;7.254;2024-03-23T13:34:38;2.53;;;1.43;;
13941;SDS011;7043;51.630;7.254;2024-03-23T13:37:05;4.83;;;1.80;;
13941;SDS011;7043;51.630;7.254;2024-03-23T13:39:32;4.67;;;2.27;;
13941;SDS011;7043;51.630;7.254;2024-03-23T13:41:58;5.03;;;2.80;;
13941;SDS011;7043;51.630;7.254;2024-03-23T13:44:24;2.87;;;2.63;;
13941;SDS011;7043;51.630;7.254;2024-03-23T13:46:50;8.10;;;2.27;;
13941;SDS011;7043;51.630;7.254;2024-03-23T13:49:24;4.90;;;1.93;;
13941;SDS011;7043;51.630;7.254;2024-03-23T13:51:51;6.73;;;1.97;;
13941;SDS011;7043;51.630;7.254;2024-03-23T13:54:17;5.97;;;2.40;;
13941;SDS011;7043;51.630;7.254;2024-03-23T13:56:43;5.10;;;2.30;;
13941;SDS011;7043;51.630;7.254;2024-03-23T13:59:09;6.87;;;2.30;;
13941;SDS011;7043;51.630;7.254;2024-03-23T14:01:35;4.20;;;1.93;;
13941;SDS011;7043;51.630;7.254;2024-03-23T14:04:01;4.23;;;2.23;;
13941;SDS011;7043;51.630;7.254;2024-03-23T14:06:27;5.27;;;2.20;;
13941;SDS011;7043;51.630;7.254;2024-03-23T14:08:53;4.90;;;2.00;;
13941;SDS011;7043;51.630;7.254;2024-03-23T14:11:19;7.77;;;4.50;;
13941;SDS011;7043;51.630;7.254;2024-03-23T14:13:45;4.23;;;1.97;;
13941;SDS011;7043;51.630;7.254;2024-03-23T14:16:11;4.17;;;1.70;;
13941;SDS011;7043;51.630;7.254;2024-03-23T14:18:37;2.57;;;1.97;;
13941;SDS011;7043;51.630;7.254;2024-03-23T14:21:03;4.13;;;1.90;;
13941;SDS011;7043;51.630;7.254;2024-03-23T14:23:30;9.17;;;3.77;;
13941;SDS011;7043;51.630;7.254;2024-03-23T14:25:59;3.07;;;1.80;;
13941;SDS011;7043;51.630;7.254;2024-03-23T14:28:26;3.50;;;1.83;;
13941;SDS011;7043;51.630;7.254;2024-03-23T14:30:52;3.40;;;1.50;;
13941;SDS011;7043;51.630;7.254;2024-03-23T14:33:20;4.27;;;2.20;;
13941;SDS011;7043;51.630;7.254;2024-03-23T14:35:55;4.30;;;2.20;;
13941;SDS011;7043;51.630;7.254;2024-03-23T14:38:22;4.87;;;2.13;;
13941;SDS011;7043;51.630;7.254;2024-03-23T14:40:48;7.33;;;2.57;;
13941;SDS011;7043;51.630;7.254;2024-03-23T14:43:14;2.73;;;1.50;;
13941;SDS011;7043;51.630;7.254;2024-03-23T14:48:25;6.77;;;2.13;;
13941;SDS011;7043;51.630;7.254;2024-03-23T14:50:55;3.10;;;1.67;;
13941;SDS011;7043;51.630;7.254;2024-03-23T14:53:21;4.03;;;1.90;;
13941;SDS011;7043;51.630;7.254;2024-03-23T14:55:47;3.33;;;1.63;;
13941;SDS011;7043;51.630;7.254;2024-03-23T14:58:14;3.23;;;1.53;;
13941;SDS011;7043;51.630;7.254;2024-03-23T15:00:40;2.83;;;1.67;;
13941;SDS011;7043;51.630;7.254;2024-03-23T15:03:06;2.03;;;1.27;;
13941;SDS011;7043;51.630;7.254;2024-03-23T15:05:32;3.23;;;1.47;;
13941;SDS011;7043;51.630;7.254;2024-03-23T15:07:58;4.30;;;1.83;;
13941;SDS011;7043;51.630;7.254;2024-03-23T15:10:24;2.73;;;1.50;;
13941;SDS011;7043;51.630;7.254;2024-03-23T15:12:50;3.33;;;1.33;;
13941;SDS011;7043;51.630;7.254;2024-03-23T15:15:16;2.90;;;1.90;;
13941;SDS011;7043;51.630;7.254;2024-03-23T15:17:42;3.87;;;1.50;;
13941;SDS011;7043;51.630;7.254;2024-03-23T15:20:10;4.40;;;1.83;;
13941;SDS011;7043;51.630;7.254;2024-03-23T15:22:37;5.97;;;1.90;;
13941;SDS011;7043;51.630;7.254;2024-03-23T15:25:03;4.03;;;1.77;;
13941;SDS011;7043;51.630;7.254;2024-03-23T15:27:29;3.77;;;1.60;;
13941;SDS011;7043;51.630;7.254;2024-03-23T15:29:58;5.33;;;1.97;;
13941;SDS011;7043;51.630;7.254;2024-03-23T15:32:24;5.03;;;1.50;;
13941;SDS011;7043;51.630;7.254;2024-03-23T15:34:50;3.90;;;1.60;;
13941;SDS011;7043;51.630;7.254;2024-03-23T15:37:16;4.13;;;2.20;;
13941;SDS011;7043;51.630;7.254;2024-03-23T15:39:43;2.27;;;1.33;;
13941;SDS011;7043;51.630;7.254;2024-03-23T15:42:09;2.67;;;1.40;;
13941;SDS011;7043;51.630;7.254;2024-03-23T15:44:35;4.23;;;1.80;;
13941;SDS011;7043;51.630;7.254;2024-03-23T15:47:01;3.73;;;1.50;;
13941;SDS011;7043;51.630;7.254;2024-03-23T15:49:27;5.53;;;2.13;;
13941;SDS011;7043;51.630;7.254;2024-03-23T15:51:53;3.40;;;1.50;;
13941;SDS011;7043;51.630;7.254;2024-03-23T15:54:19;3.53;;;1.30;;
13941;SDS011;7043;51.630;7.254;2024-03-23T15:56:47;3.33;;;1.23;;